sensor_id;sensor_type;location;lat;lon;timestamp;pressure;altitude;pressure_sealevel;temperature;humidity
30897;BME280;64229;52.246;21.054;2023-06-24T00:01:22;100626.56;;;19.38;73.08
30897;BME280;64229;52.246;21.054;2023-06-24T00:03:48;100626.56;;;19.38;73.30
30897;BME280;64229;52.246;21.054;2023-06-24T00:06:13;100624.78;;;19.33;73.24
30897;BME280;64229;52.246;21.054;2023-06-24T00:08:49;100624.00;;;19.32;73.24
30897;BME280;64229;52.246;21.054;2023-06-24T00:11:15;100622.09;;;19.33;73.76
30897;BME280;64229;52.246;21.054;2023-06-24T00:13:41;100600.56;;;19.19;73.76
30897;BME280;64229;52.246;21.054;2023-06-24T00:16:07;100613.81;;;19.29;73.33
30897;BME280;64229;52.246;21.054;2023-06-24T00:18:33;100614.59;;;19.30;73.74
30897;BME280;64229;52.246;21.054;2023-06-24T00:20:59;100613.66;;;19.26;73.83
30897;BME280;64229;52.246;21.054;2023-06-24T00:23:26;100618.28;;;19.25;74.13
30897;BME280;64229;52.246;21.054;2023-06-24T00:25:52;100607.53;;;19.12;73.89
30897;BME280;64229;52.246;21.054;2023-06-24T00:28:18;100623.97;;;19.24;73.88
30897;BME280;64229;52.246;21.054;2023-06-24T00:30:44;100633.72;;;19.25;74.33
30897;BME280;64229;52.246;21.054;2023-06-24T00:33:09;100636.09;;;19.26;74.14
30897;BME280;64229;52.246;21.054;2023-06-24T00:35:36;100623.34;;;19.18;74.27
30897;BME280;64229;52.246;21.054;2023-06-24T00:38:04;100631.47;;;19.27;74.03
30897;BME280;64229;52.246;21.054;2023-06-24T00:40:30;100633.88;;;19.28;74.19
30897;BME280;64229;52.246;21.054;2023-06-24T00:42:55;100636.72;;;19.32;73.92
30897;BME280;64229;52.246;21.054;2023-06-24T00:45:22;100633.53;;;19.30;74.07
30897;BME280;64229;52.246;21.054;2023-06-24T00:47:47;100644.69;;;19.28;73.81
30897;BME280;64229;52.246;21.054;2023-06-24T00:50:14;100657.75;;;19.26;73.79
30897;BME280;64229;52.246;21.054;2023-06-24T00:52:40;100657.59;;;19.31;73.87
30897;BME280;64229;52.246;21.054;2023-06-24T00:55:12;100656.31;;;19.29;73.67
30897;BME280;64229;52.246;21.054;2023-06-24T00:57:47;100649.63;;;19.26;73.84
30897;BME280;64229;52.246;21.054;2023-06-24T01:00:17;100654.84;;;19.23;74.21
30897;BME280;64229;52.246;21.054;2023-06-24T01:02:44;100657.56;;;19.23;74.01
30897;BME280;64229;52.246;21.054;2023-06-24T01:05:10;100639.53;;;19.10;73.96
30897;BME280;64229;52.246;21.054;2023-06-24T01:07:37;100664.28;;;19.25;74.17
30897;BME280;64229;52.246;21.054;2023-06-24T01:10:04;100663.47;;;19.25;74.32
30897;BME280;64229;52.246;21.054;2023-06-24T01:12:37;100665.66;;;19.23;74.40
30897;BME280;64229;52.246;21.054;2023-06-24T01:15:09;100651.78;;;19.07;74.29
30897;BME280;64229;52.246;21.054;2023-06-24T01:18:02;100676.50;;;19.23;74.38
30897;BME280;64229;52.246;21.054;2023-06-24T01:20:39;100682.69;;;19.23;74.08
30897;BME280;64229;52.246;21.054;2023-06-24T01:23:20;100681.91;;;19.23;74.21
30897;BME280;64229;52.246;21.054;2023-06-24T01:26:22;100678.88;;;19.24;74.14
30897;BME280;64229;52.246;21.054;2023-06-24T01:31:37;100688.44;;;19.22;74.20
30897;BME280;64229;52.246;21.054;2023-06-24T01:34:24;100679.03;;;19.19;74.04
30897;BME280;64229;52.246;21.054;2023-06-24T01:37:20;100686.34;;;19.19;74.31
30897;BME280;64229;52.246;21.054;2023-06-24T01:39:49;100680.16;;;19.18;74.57
30897;BME280;64229;52.246;21.054;2023-06-24T01:42:17;100671.19;;;19.09;74.52
30897;BME280;64229;52.246;21.054;2023-06-24T01:44:47;100672.00;;;19.10;74.57
30897;BME280;64229;52.246;21.054;2023-06-24T01:47:18;100676.28;;;19.11;74.36
30897;BME280;64229;52.246;21.054;2023-06-24T01:49:45;100674.22;;;19.07;74.16
30897;BME280;64229;52.246;21.054;2023-06-24T01:52:11;100678.34;;;19.05;74.62
30897;BME280;64229;52.246;21.054;2023-06-24T01:54:39;100652.00;;;18.88;74.54
30897;BME280;64229;52.246;21.054;2023-06-24T01:57:08;100664.09;;;18.91;74.46
30897;BME280;64229;52.246;21.054;2023-06-24T01:59:36;100681.00;;;18.96;74.89
30897;BME280;64229;52.246;21.054;2023-06-24T02:02:03;100680.84;;;18.93;75.05
30897;BME280;64229;52.246;21.054;2023-06-24T02:04:29;100663.25;;;18.73;75.08
30897;BME280;64229;52.246;21.054;2023-06-24T02:07:00;100675.03;;;18.77;74.97
30897;BME280;64229;52.246;21.054;2023-06-24T02:09:27;100673.13;;;18.77;74.95
30897;BME280;64229;52.246;21.054;2023-06-24T02:11:55;100680.25;;;18.73;74.98
30897;BME280;64229;52.246;21.054;2023-06-24T02:14:21;100692.47;;;18.71;75.12
30897;BME280;64229;52.246;21.054;2023-06-24T02:16:48;100658.09;;;18.40;75.16
30897;BME280;64229;52.246;21.054;2023-06-24T02:19:16;100695.63;;;18.64;75.58
30897;BME280;64229;52.246;21.054;2023-06-24T02:21:44;100697.72;;;18.67;75.53
30897;BME280;64229;52.246;21.054;2023-06-24T02:24:10;100707.09;;;18.70;75.77
30897;BME280;64229;52.246;21.054;2023-06-24T02:26:37;100707.09;;;18.70;75.76
30897;BME280;64229;52.246;21.054;2023-06-24T02:29:08;100701.69;;;18.70;75.94
30897;BME280;64229;52.246;21.054;2023-06-24T02:31:34;100662.19;;;18.38;76.11
30897;BME280;64229;52.246;21.054;2023-06-24T02:34:00;100696.44;;;18.65;75.76
30897;BME280;64229;52.246;21.054;2023-06-24T02:36:25;100713.13;;;18.67;75.72
30897;BME280;64229;52.246;21.054;2023-06-24T02:38:51;100709.44;;;18.63;76.14
30897;BME280;64229;52.246;21.054;2023-06-24T02:41:17;100714.25;;;18.66;76.23
30897;BME280;64229;52.246;21.054;2023-06-24T02:43:42;100717.75;;;18.66;76.15
30897;BME280;64229;52.246;21.054;2023-06-24T02:46:08;100715.84;;;18.67;76.42
30897;BME280;64229;52.246;21.054;2023-06-24T02:48:36;100697.75;;;18.54;76.55
30897;BME280;64229;52.246;21.054;2023-06-24T02:51:03;100711.03;;;18.64;76.49
30897;BME280;64229;52.246;21.054;2023-06-24T02:53:30;100716.44;;;18.64;76.66
30897;BME280;64229;52.246;21.054;2023-06-24T02:55:56;100719.72;;;18.61;77.02
30897;BME280;64229;52.246;21.054;2023-06-24T02:58:23;100717.03;;;18.61;77.41
30897;BME280;64229;52.246;21.054;2023-06-24T03:00:49;100724.06;;;18.62;77.71
30897;BME280;64229;52.246;21.054;2023-06-24T03:03:15;100718.94;;;18.60;77.87
30897;BME280;64229;52.246;21.054;2023-06-24T03:05:41;100721.16;;;18.58;78.14
30897;BME280;64229;52.246;21.054;2023-06-24T03:08:10;100732.66;;;18.64;78.27
30897;BME280;64229;52.246;21.054;2023-06-24T03:10:36;100721.94;;;18.59;78.35
30897;BME280;64229;52.246;21.054;2023-06-24T03:13:02;100735.88;;;18.66;78.52
30897;BME280;64229;52.246;21.054;2023-06-24T03:15:27;100732.16;;;18.62;78.54
30897;BME280;64229;52.246;21.054;2023-06-24T03:17:53;100742.38;;;18.65;78.96
30897;BME280;64229;52.246;21.054;2023-06-24T03:20:19;100723.69;;;18.55;79.23
30897;BME280;64229;52.246;21.054;2023-06-24T03:22:45;100716.28;;;18.46;79.14
30897;BME280;64229;52.246;21.054;2023-06-24T03:25:10;100736.78;;;18.61;79.37
30897;BME280;64229;52.246;21.054;2023-06-24T03:27:36;100743.19;;;18.65;79.75
30897;BME280;64229;52.246;21.054;2023-06-24T03:30:02;100726.78;;;18.48;79.72
30897;BME280;64229;52.246;21.054;2023-06-24T03:32:27;100732.75;;;18.59;79.88
30897;BME280;64229;52.246;21.054;2023-06-24T03:34:52;100749.69;;;18.64;79.98
30897;BME280;64229;52.246;21.054;2023-06-24T03:37:18;100758.78;;;18.68;79.91
30897;BME280;64229;52.246;21.054;2023-06-24T03:39:43;100750.97;;;18.67;80.14
30897;BME280;64229;52.246;21.054;2023-06-24T03:42:08;100761.00;;;18.66;80.21
30897;BME280;64229;52.246;21.054;2023-06-24T03:44:34;100746.75;;;18.61;80.45
30897;BME280;64229;52.246;21.054;2023-06-24T03:46:59;100764.38;;;18.72;80.46
30897;BME280;64229;52.246;21.054;2023-06-24T03:49:24;100753.84;;;18.70;80.56
30897;BME280;64229;52.246;21.054;2023-06-24T03:51:49;100746.75;;;18.61;80.60
30897;BME280;64229;52.246;21.054;2023-06-24T03:54:15;100766.00;;;18.73;81.22
30897;BME280;64229;52.246;21.054;2023-06-24T03:56:40;100769.84;;;18.81;80.94
30897;BME280;64229;52.246;21.054;2023-06-24T03:59:05;100771.88;;;18.75;81.07
30897;BME280;64229;52.246;21.054;2023-06-24T04:01:31;100771.41;;;18.73;81.36
30897;BME280;64229;52.246;21.054;2023-06-24T04:03:57;100753.00;;;18.61;81.43
30897;BME280;64229;52.246;21.054;2023-06-24T04:06:23;100771.09;;;18.74;81.51
30897;BME280;64229;52.246;21.054;2023-06-24T04:08:48;100762.47;;;18.72;81.73
30897;BME280;64229;52.246;21.054;2023-06-24T04:11:14;100760.38;;;18.69;81.77
30897;BME280;64229;52.246;21.054;2023-06-24T04:13:39;100758.47;;;18.70;81.83
30897;BME280;64229;52.246;21.054;2023-06-24T04:16:04;100764.25;;;18.77;81.84
30897;BME280;64229;52.246;21.054;2023-06-24T04:18:30;100771.09;;;18.74;81.89
30897;BME280;64229;52.246;21.054;2023-06-24T04:20:55;100770.59;;;18.72;82.15
30897;BME280;64229;52.246;21.054;2023-06-24T04:23:20;100775.69;;;18.74;82.12
30897;BME280;64229;52.246;21.054;2023-06-24T04:25:45;100773.78;;;18.74;82.13
30897;BME280;64229;52.246;21.054;2023-06-24T04:28:11;100767.94;;;18.81;82.01
30897;BME280;64229;52.246;21.054;2023-06-24T04:30:37;100771.63;;;18.85;81.83
30897;BME280;64229;52.246;21.054;2023-06-24T04:33:03;100774.81;;;18.87;81.91
30897;BME280;64229;52.246;21.054;2023-06-24T04:35:29;100704.69;;;18.46;81.81
30897;BME280;64229;52.246;21.054;2023-06-24T04:37:55;100773.28;;;18.95;81.75
30897;BME280;64229;52.246;21.054;2023-06-24T04:40:20;100773.84;;;19.05;81.42
30897;BME280;64229;52.246;21.054;2023-06-24T04:42:46;100780.53;;;19.08;81.46
30897;BME280;64229;52.246;21.054;2023-06-24T04:45:11;100765.88;;;19.09;81.14
30897;BME280;64229;52.246;21.054;2023-06-24T04:47:36;100775.16;;;19.17;81.09
30897;BME280;64229;52.246;21.054;2023-06-24T04:50:02;100755.84;;;19.10;81.03
30897;BME280;64229;52.246;21.054;2023-06-24T04:52:28;100777.13;;;19.25;80.67
30897;BME280;64229;52.246;21.054;2023-06-24T04:54:53;100775.22;;;19.25;80.78
30897;BME280;64229;52.246;21.054;2023-06-24T04:57:29;100775.56;;;19.32;80.95
30897;BME280;64229;52.246;21.054;2023-06-24T04:59:56;100761.69;;;19.25;80.33
30897;BME280;64229;52.246;21.054;2023-06-24T05:02:21;100772.88;;;19.41;79.99
30897;BME280;64229;52.246;21.054;2023-06-24T05:04:47;100763.50;;;19.39;79.80
30897;BME280;64229;52.246;21.054;2023-06-24T05:07:12;100773.25;;;19.48;79.72
30897;BME280;64229;52.246;21.054;2023-06-24T05:09:38;100767.34;;;19.46;79.23
30897;BME280;64229;52.246;21.054;2023-06-24T05:12:04;100778.75;;;19.65;79.01
30897;BME280;64229;52.246;21.054;2023-06-24T05:14:30;100784.81;;;19.71;78.60
30897;BME280;64229;52.246;21.054;2023-06-24T05:16:55;100789.13;;;19.72;78.43
30897;BME280;64229;52.246;21.054;2023-06-24T05:19:20;100795.03;;;19.74;77.88
30897;BME280;64229;52.246;21.054;2023-06-24T05:21:46;100803.63;;;19.76;77.79
30897;BME280;64229;52.246;21.054;2023-06-24T05:24:11;100803.03;;;19.79;77.68
30897;BME280;64229;52.246;21.054;2023-06-24T05:26:36;100808.75;;;19.86;77.21
30897;BME280;64229;52.246;21.054;2023-06-24T05:29:02;100808.44;;;19.88;76.87
30897;BME280;64229;52.246;21.054;2023-06-24T05:31:28;100795.72;;;19.88;76.92
30897;BME280;64229;52.246;21.054;2023-06-24T05:33:53;100801.13;;;19.97;76.59
30897;BME280;64229;52.246;21.054;2023-06-24T05:36:18;100815.81;;;20.05;76.59
30897;BME280;64229;52.246;21.054;2023-06-24T05:38:44;100819.38;;;20.14;76.06
30897;BME280;64229;52.246;21.054;2023-06-24T05:41:09;100823.03;;;20.18;76.11
30897;BME280;64229;52.246;21.054;2023-06-24T05:43:34;100834.69;;;20.27;75.53
30897;BME280;64229;52.246;21.054;2023-06-24T05:45:59;100827.69;;;20.35;75.30
30897;BME280;64229;52.246;21.054;2023-06-24T05:48:25;100829.91;;;20.41;74.81
30897;BME280;64229;52.246;21.054;2023-06-24T05:50:50;100827.41;;;20.45;74.75
30897;BME280;64229;52.246;21.054;2023-06-24T05:53:16;100820.56;;;20.47;74.43
30897;BME280;64229;52.246;21.054;2023-06-24T05:55:41;100832.53;;;20.64;74.29
30897;BME280;64229;52.246;21.054;2023-06-24T05:58:06;100829.81;;;20.72;73.68
30897;BME280;64229;52.246;21.054;2023-06-24T06:00:31;100808.59;;;20.66;73.37
30897;BME280;64229;52.246;21.054;2023-06-24T06:02:57;100820.88;;;20.80;72.89
30897;BME280;64229;52.246;21.054;2023-06-24T06:05:22;100824.84;;;20.92;72.85
30897;BME280;64229;52.246;21.054;2023-06-24T06:07:47;100835.38;;;21.02;72.71
30897;BME280;64229;52.246;21.054;2023-06-24T06:10:13;100835.53;;;21.05;72.34
30897;BME280;64229;52.246;21.054;2023-06-24T06:12:42;100819.09;;;21.02;72.00
30897;BME280;64229;52.246;21.054;2023-06-24T06:15:08;100839.19;;;21.18;71.70
30897;BME280;64229;52.246;21.054;2023-06-24T06:17:33;100838.22;;;21.23;71.70
30897;BME280;64229;52.246;21.054;2023-06-24T06:19:59;100837.44;;;21.31;71.68
30897;BME280;64229;52.246;21.054;2023-06-24T06:22:24;100829.88;;;21.36;71.72
30897;BME280;64229;52.246;21.054;2023-06-24T06:24:49;100834.50;;;21.45;71.69
30897;BME280;64229;52.246;21.054;2023-06-24T06:27:15;100841.38;;;21.51;71.43
30897;BME280;64229;52.246;21.054;2023-06-24T06:29:40;100838.00;;;21.54;70.92
30897;BME280;64229;52.246;21.054;2023-06-24T06:32:06;100838.78;;;21.54;70.83
30897;BME280;64229;52.246;21.054;2023-06-24T06:34:31;100831.78;;;21.53;70.82
30897;BME280;64229;52.246;21.054;2023-06-24T06:36:56;100823.66;;;21.45;70.73
30897;BME280;64229;52.246;21.054;2023-06-24T06:39:22;100810.41;;;21.43;70.53
30897;BME280;64229;52.246;21.054;2023-06-24T06:41:47;100835.72;;;21.64;70.62
30897;BME280;64229;52.246;21.054;2023-06-24T06:44:12;100835.03;;;21.76;70.26
30897;BME280;64229;52.246;21.054;2023-06-24T06:46:37;100832.63;;;21.83;69.81
30897;BME280;64229;52.246;21.054;2023-06-24T06:49:03;100815.22;;;21.76;69.67
30897;BME280;64229;52.246;21.054;2023-06-24T06:51:28;100841.19;;;21.94;69.01
30897;BME280;64229;52.246;21.054;2023-06-24T06:53:53;100835.88;;;21.98;68.40
30897;BME280;64229;52.246;21.054;2023-06-24T06:56:22;100848.16;;;22.12;68.66
30897;BME280;64229;52.246;21.054;2023-06-24T06:58:47;100843.78;;;22.20;67.93
30897;BME280;64229;52.246;21.054;2023-06-24T07:01:12;100851.09;;;22.28;67.86
30897;BME280;64229;52.246;21.054;2023-06-24T07:03:38;100848.31;;;22.37;67.68
30897;BME280;64229;52.246;21.054;2023-06-24T07:06:04;100838.97;;;22.46;67.43
30897;BME280;64229;52.246;21.054;2023-06-24T07:08:29;100842.22;;;22.61;67.15
30897;BME280;64229;52.246;21.054;2023-06-24T07:10:54;100838.44;;;22.74;66.73
30897;BME280;64229;52.246;21.054;2023-06-24T07:13:19;100833.94;;;22.99;65.85
30897;BME280;64229;52.246;21.054;2023-06-24T07:15:45;100836.97;;;23.30;64.81
30897;BME280;64229;52.246;21.054;2023-06-24T07:18:10;100836.94;;;23.76;64.26
30897;BME280;64229;52.246;21.054;2023-06-24T07:20:35;100832.16;;;24.09;62.53
30897;BME280;64229;52.246;21.054;2023-06-24T07:23:00;100834.66;;;24.27;61.21
30897;BME280;64229;52.246;21.054;2023-06-24T07:25:26;100839.81;;;24.68;60.42
30897;BME280;64229;52.246;21.054;2023-06-24T07:27:53;100828.59;;;25.14;59.07
30897;BME280;64229;52.246;21.054;2023-06-24T07:30:18;100816.94;;;25.76;55.21
30897;BME280;64229;52.246;21.054;2023-06-24T07:32:43;100806.75;;;25.92;54.98
30897;BME280;64229;52.246;21.054;2023-06-24T07:35:09;100820.50;;;26.31;53.69
30897;BME280;64229;52.246;21.054;2023-06-24T07:37:35;100823.59;;;26.65;51.67
30897;BME280;64229;52.246;21.054;2023-06-24T07:40:01;100826.09;;;27.12;50.85
30897;BME280;64229;52.246;21.054;2023-06-24T07:42:26;100833.22;;;27.39;49.85
30897;BME280;64229;52.246;21.054;2023-06-24T07:44:51;100831.63;;;27.61;48.68
30897;BME280;64229;52.246;21.054;2023-06-24T07:47:17;100832.63;;;27.73;47.83
30897;BME280;64229;52.246;21.054;2023-06-24T07:49:43;100836.81;;;27.89;47.35
30897;BME280;64229;52.246;21.054;2023-06-24T07:52:09;100838.22;;;28.06;46.09
30897;BME280;64229;52.246;21.054;2023-06-24T07:54:34;100840.78;;;28.18;45.33
30897;BME280;64229;52.246;21.054;2023-06-24T07:57:00;100838.72;;;28.12;45.65
30897;BME280;64229;52.246;21.054;2023-06-24T07:59:26;100840.66;;;28.11;45.53
30897;BME280;64229;52.246;21.054;2023-06-24T08:01:51;100832.97;;;28.20;45.25
30897;BME280;64229;52.246;21.054;2023-06-24T08:04:17;100843.78;;;28.36;44.76
30897;BME280;64229;52.246;21.054;2023-06-24T08:06:42;100836.13;;;28.22;44.82
30897;BME280;64229;52.246;21.054;2023-06-24T08:09:08;100850.22;;;28.21;45.54
30897;BME280;64229;52.246;21.054;2023-06-24T08:11:33;100854.19;;;27.97;44.38
30897;BME280;64229;52.246;21.054;2023-06-24T08:13:58;100831.09;;;27.52;44.09
30897;BME280;64229;52.246;21.054;2023-06-24T08:16:24;100848.66;;;27.48;43.73
30897;BME280;64229;52.246;21.054;2023-06-24T08:18:49;100863.00;;;27.64;42.81
30897;BME280;64229;52.246;21.054;2023-06-24T08:21:14;100859.75;;;27.55;42.47
30897;BME280;64229;52.246;21.054;2023-06-24T08:23:39;100857.25;;;27.46;42.28
30897;BME280;64229;52.246;21.054;2023-06-24T08:26:06;100866.81;;;27.79;42.25
30897;BME280;64229;52.246;21.054;2023-06-24T08:28:32;100859.19;;;28.18;40.49
30897;BME280;64229;52.246;21.054;2023-06-24T08:30:57;100864.13;;;28.32;39.75
30897;BME280;64229;52.246;21.054;2023-06-24T08:33:23;100866.63;;;28.74;38.66
30897;BME280;64229;52.246;21.054;2023-06-24T08:35:48;100858.38;;;28.74;37.80
30897;BME280;64229;52.246;21.054;2023-06-24T08:38:13;100866.16;;;28.98;36.05
30897;BME280;64229;52.246;21.054;2023-06-24T08:40:38;100866.91;;;28.65;35.91
30897;BME280;64229;52.246;21.054;2023-06-24T08:43:06;100870.59;;;28.46;36.59
30897;BME280;64229;52.246;21.054;2023-06-24T08:45:31;100862.75;;;28.48;36.74
30897;BME280;64229;52.246;21.054;2023-06-24T08:47:58;100854.03;;;28.39;36.51
30897;BME280;64229;52.246;21.054;2023-06-24T08:50:27;100876.81;;;28.43;37.26
30897;BME280;64229;52.246;21.054;2023-06-24T08:52:56;100872.16;;;28.47;36.99
30897;BME280;64229;52.246;21.054;2023-06-24T08:55:23;100867.28;;;28.34;37.03
30897;BME280;64229;52.246;21.054;2023-06-24T08:57:53;100868.84;;;28.35;37.19
30897;BME280;64229;52.246;21.054;2023-06-24T09:00:18;100873.97;;;28.36;36.39
30897;BME280;64229;52.246;21.054;2023-06-24T09:02:44;100867.88;;;28.23;36.35
30897;BME280;64229;52.246;21.054;2023-06-24T09:05:10;100880.28;;;28.14;36.78
30897;BME280;64229;52.246;21.054;2023-06-24T09:07:36;100880.91;;;28.04;36.52
30897;BME280;64229;52.246;21.054;2023-06-24T09:10:02;100883.94;;;27.72;37.09
30897;BME280;64229;52.246;21.054;2023-06-24T09:12:31;100879.00;;;27.58;37.41
30897;BME280;64229;52.246;21.054;2023-06-24T09:14:57;100882.78;;;27.31;37.43
30897;BME280;64229;52.246;21.054;2023-06-24T09:17:22;100877.66;;;27.06;37.34
30897;BME280;64229;52.246;21.054;2023-06-24T09:19:48;100874.31;;;26.97;37.87
30897;BME280;64229;52.246;21.054;2023-06-24T09:22:14;100877.72;;;26.91;38.93
30897;BME280;64229;52.246;21.054;2023-06-24T09:24:48;100872.34;;;26.78;39.62
30897;BME280;64229;52.246;21.054;2023-06-24T09:27:15;100870.66;;;26.70;39.42
30897;BME280;64229;52.246;21.054;2023-06-24T09:29:42;100873.06;;;26.56;39.37
30897;BME280;64229;52.246;21.054;2023-06-24T09:32:08;100864.41;;;26.19;39.68
30897;BME280;64229;52.246;21.054;2023-06-24T09:34:34;100874.75;;;26.10;40.11
30897;BME280;64229;52.246;21.054;2023-06-24T09:37:00;100865.25;;;25.88;40.31
30897;BME280;64229;52.246;21.054;2023-06-24T09:39:27;100873.91;;;25.74;40.35
30897;BME280;64229;52.246;21.054;2023-06-24T09:42:00;100879.38;;;25.74;41.13
30897;BME280;64229;52.246;21.054;2023-06-24T09:44:26;100868.59;;;25.65;41.09
30897;BME280;64229;52.246;21.054;2023-06-24T09:46:52;100876.53;;;25.86;40.74
30897;BME280;64229;52.246;21.054;2023-06-24T09:49:18;100876.00;;;25.81;41.21
30897;BME280;64229;52.246;21.054;2023-06-24T09:51:48;100878.31;;;25.79;41.66
30897;BME280;64229;52.246;21.054;2023-06-24T09:54:14;100883.31;;;25.92;40.88
30897;BME280;64229;52.246;21.054;2023-06-24T09:56:46;100857.16;;;25.76;40.95
30897;BME280;64229;52.246;21.054;2023-06-24T09:59:13;100888.00;;;25.92;41.38
30897;BME280;64229;52.246;21.054;2023-06-24T10:01:40;100884.22;;;25.97;40.64
30897;BME280;64229;52.246;21.054;2023-06-24T10:04:06;100871.25;;;25.78;41.35
30897;BME280;64229;52.246;21.054;2023-06-24T10:06:32;100849.69;;;25.45;41.32
30897;BME280;64229;52.246;21.054;2023-06-24T10:08:58;100871.81;;;25.39;41.85
30897;BME280;64229;52.246;21.054;2023-06-24T10:11:23;100880.63;;;25.49;41.90
30897;BME280;64229;52.246;21.054;2023-06-24T10:13:49;100878.84;;;25.41;41.64
30897;BME280;64229;52.246;21.054;2023-06-24T10:16:15;100873.81;;;25.27;41.48
30897;BME280;64229;52.246;21.054;2023-06-24T10:18:41;100879.19;;;25.23;41.92
30897;BME280;64229;52.246;21.054;2023-06-24T10:21:08;100879.69;;;25.13;41.54
30897;BME280;64229;52.246;21.054;2023-06-24T10:23:39;100872.81;;;25.03;41.87
30897;BME280;64229;52.246;21.054;2023-06-24T10:26:21;100876.53;;;24.99;42.21
30897;BME280;64229;52.246;21.054;2023-06-24T10:34:22;100870.28;;;24.98;42.92
30897;BME280;64229;52.246;21.054;2023-06-24T10:37:04;100883.00;;;25.06;41.17
30897;BME280;64229;52.246;21.054;2023-06-24T10:40:01;100880.31;;;24.94;42.36
30897;BME280;64229;52.246;21.054;2023-06-24T10:42:38;100854.38;;;24.88;41.71
30897;BME280;64229;52.246;21.054;2023-06-24T10:47:40;100880.94;;;25.16;41.69
30897;BME280;64229;52.246;21.054;2023-06-24T10:50:06;100868.78;;;25.29;40.73
30897;BME280;64229;52.246;21.054;2023-06-24T10:52:32;100866.06;;;25.29;40.85
30897;BME280;64229;52.246;21.054;2023-06-24T10:55:02;100872.00;;;25.31;41.00
30897;BME280;64229;52.246;21.054;2023-06-24T10:57:28;100870.13;;;25.35;41.52
30897;BME280;64229;52.246;21.054;2023-06-24T10:59:56;100877.28;;;25.39;41.72
30897;BME280;64229;52.246;21.054;2023-06-24T11:02:23;100874.19;;;25.41;41.48
30897;BME280;64229;52.246;21.054;2023-06-24T11:04:59;100878.63;;;25.46;41.21
30897;BME280;64229;52.246;21.054;2023-06-24T11:07:27;100871.56;;;25.45;41.36
30897;BME280;64229;52.246;21.054;2023-06-24T11:09:54;100867.75;;;25.33;41.86
30897;BME280;64229;52.246;21.054;2023-06-24T11:12:24;100879.63;;;25.25;41.71
30897;BME280;64229;52.246;21.054;2023-06-24T11:14:50;100880.69;;;25.21;41.86
30897;BME280;64229;52.246;21.054;2023-06-24T11:17:15;100883.31;;;25.17;39.56
30897;BME280;64229;52.246;21.054;2023-06-24T11:19:41;100883.38;;;24.93;40.00
30897;BME280;64229;52.246;21.054;2023-06-24T11:22:07;100891.06;;;24.75;41.30
30897;BME280;64229;52.246;21.054;2023-06-24T11:24:33;100885.09;;;24.57;41.64
30897;BME280;64229;52.246;21.054;2023-06-24T11:26:58;100887.03;;;24.44;41.89
30897;BME280;64229;52.246;21.054;2023-06-24T11:29:24;100887.72;;;24.41;42.36
30897;BME280;64229;52.246;21.054;2023-06-24T11:31:50;100893.16;;;24.29;42.26
30897;BME280;64229;52.246;21.054;2023-06-24T11:34:16;100869.31;;;24.02;43.07
30897;BME280;64229;52.246;21.054;2023-06-24T11:36:41;100890.91;;;24.07;43.36
30897;BME280;64229;52.246;21.054;2023-06-24T11:39:07;100893.75;;;24.10;42.89
30897;BME280;64229;52.246;21.054;2023-06-24T11:41:32;100884.31;;;23.95;43.35
30897;BME280;64229;52.246;21.054;2023-06-24T11:43:58;100896.91;;;23.88;43.45
30897;BME280;64229;52.246;21.054;2023-06-24T11:46:28;100900.34;;;23.85;43.63
30897;BME280;64229;52.246;21.054;2023-06-24T11:49:06;100897.16;;;23.83;44.21
30897;BME280;64229;52.246;21.054;2023-06-24T11:51:32;100895.06;;;23.67;44.45
30897;BME280;64229;52.246;21.054;2023-06-24T11:54:02;100896.28;;;23.58;45.03
30897;BME280;64229;52.246;21.054;2023-06-24T11:56:35;100897.50;;;23.48;45.71
30897;BME280;64229;52.246;21.054;2023-06-24T11:59:03;100904.53;;;23.49;45.66
30897;BME280;64229;52.246;21.054;2023-06-24T12:01:32;100890.78;;;23.33;45.48
30897;BME280;64229;52.246;21.054;2023-06-24T12:04:01;100907.03;;;23.42;45.27
30897;BME280;64229;52.246;21.054;2023-06-24T12:06:26;100900.97;;;23.36;45.59
30897;BME280;64229;52.246;21.054;2023-06-24T12:08:52;100900.53;;;23.34;45.73
30897;BME280;64229;52.246;21.054;2023-06-24T12:11:17;100903.94;;;23.31;45.91
30897;BME280;64229;52.246;21.054;2023-06-24T12:13:42;100905.25;;;23.25;46.58
30897;BME280;64229;52.246;21.054;2023-06-24T12:16:08;100899.00;;;23.25;46.58
30897;BME280;64229;52.246;21.054;2023-06-24T12:18:33;100897.09;;;23.25;47.35
30897;BME280;64229;52.246;21.054;2023-06-24T12:20:58;100898.03;;;23.29;46.95
30897;BME280;64229;52.246;21.054;2023-06-24T12:23:24;100899.28;;;23.32;46.67
30897;BME280;64229;52.246;21.054;2023-06-24T12:25:49;100898.09;;;23.21;47.53
30897;BME280;64229;52.246;21.054;2023-06-24T12:28:14;100901.63;;;23.21;47.32
30897;BME280;64229;52.246;21.054;2023-06-24T12:30:39;100898.19;;;23.12;47.35
30897;BME280;64229;52.246;21.054;2023-06-24T12:33:05;100890.09;;;23.03;47.84
30897;BME280;64229;52.246;21.054;2023-06-24T12:35:33;100906.91;;;23.18;47.68
30897;BME280;64229;52.246;21.054;2023-06-24T12:37:59;100903.09;;;23.19;48.16
30897;BME280;64229;52.246;21.054;2023-06-24T12:40:24;100903.09;;;23.19;47.89
30897;BME280;64229;52.246;21.054;2023-06-24T12:42:49;100906.00;;;23.14;47.73
30897;BME280;64229;52.246;21.054;2023-06-24T12:45:14;100899.25;;;23.20;47.91
30897;BME280;64229;52.246;21.054;2023-06-24T12:47:40;100902.84;;;23.12;47.93
30897;BME280;64229;52.246;21.054;2023-06-24T12:50:05;100894.66;;;23.12;48.45